sensor_id;sensor_type;location;lat;lon;timestamp;P1;durP1;ratioP1;P2;durP2;ratioP2
51438;SDS011;38816;51.142;-0.974;2023-08-06T00:00:02;260.77;;;243.75;;
51438;SDS011;38816;51.142;-0.974;2023-08-06T00:02:28;261.90;;;244.98;;
51438;SDS011;38816;51.142;-0.974;2023-08-06T00:04:53;257.52;;;240.90;;
51438;SDS011;38816;51.142;-0.974;2023-08-06T00:07:18;265.35;;;247.90;;
51438;SDS011;38816;51.142;-0.974;2023-08-06T00:09:44;270.55;;;252.98;;
51438;SDS011;38816;51.142;-0.974;2023-08-06T00:12:09;266.77;;;249.45;;
51438;SDS011;38816;51.142;-0.974;2023-08-06T00:14:35;269.15;;;251.48;;
51438;SDS011;38816;51.142;-0.974;2023-08-06T00:17:00;262.45;;;245.23;;
51438;SDS011;38816;51.142;-0.974;2023-08-06T00:19:26;261.02;;;244.13;;
51438;SDS011;38816;51.142;-0.974;2023-08-06T00:21:51;256.05;;;239.23;;
51438;SDS011;38816;51.142;-0.974;2023-08-06T00:24:16;268.27;;;250.93;;
51438;SDS011;38816;51.142;-0.974;2023-08-06T00:26:42;259.23;;;242.43;;
51438;SDS011;38816;51.142;-0.974;2023-08-06T00:29:07;254.15;;;237.55;;
51438;SDS011;38816;51.142;-0.974;2023-08-06T00:31:33;250.93;;;234.40;;
51438;SDS011;38816;51.142;-0.974;2023-08-06T00:33:58;254.45;;;237.98;;
51438;SDS011;38816;51.142;-0.974;2023-08-06T00:36:24;267.10;;;249.93;;
51438;SDS011;38816;51.142;-0.974;2023-08-06T00:38:49;256.00;;;239.23;;
51438;SDS011;38816;51.142;-0.974;2023-08-06T00:41:14;258.25;;;241.38;;
51438;SDS011;38816;51.142;-0.974;2023-08-06T00:43:40;250.07;;;233.93;;
51438;SDS011;38816;51.142;-0.974;2023-08-06T00:46:05;245.20;;;229.13;;
51438;SDS011;38816;51.142;-0.974;2023-08-06T00:48:31;250.65;;;234.38;;
51438;SDS011;38816;51.142;-0.974;2023-08-06T00:50:57;260.77;;;243.73;;
51438;SDS011;38816;51.142;-0.974;2023-08-06T00:53:23;270.48;;;252.80;;
51438;SDS011;38816;51.142;-0.974;2023-08-06T00:55:49;255.15;;;238.38;;
51438;SDS011;38816;51.142;-0.974;2023-08-06T00:58:16;258.35;;;241.70;;
51438;SDS011;38816;51.142;-0.974;2023-08-06T01:00:41;261.08;;;244.13;;
51438;SDS011;38816;51.142;-0.974;2023-08-06T01:03:07;260.33;;;242.98;;
51438;SDS011;38816;51.142;-0.974;2023-08-06T01:05:33;267.67;;;249.75;;
51438;SDS011;38816;51.142;-0.974;2023-08-06T01:15:53;270.40;;;252.70;;
51438;SDS011;38816;51.142;-0.974;2023-08-06T01:18:24;275.15;;;257.38;;
51438;SDS011;38816;51.142;-0.974;2023-08-06T01:20:52;281.35;;;263.25;;
51438;SDS011;38816;51.142;-0.974;2023-08-06T01:23:19;266.23;;;248.88;;
51438;SDS011;38816;51.142;-0.974;2023-08-06T01:28:14;257.60;;;240.68;;
51438;SDS011;38816;51.142;-0.974;2023-08-06T01:30:47;258.83;;;241.88;;
51438;SDS011;38816;51.142;-0.974;2023-08-06T01:33:16;258.60;;;241.82;;
51438;SDS011;38816;51.142;-0.974;2023-08-06T01:35:46;253.27;;;236.68;;
51438;SDS011;38816;51.142;-0.974;2023-08-06T01:38:14;257.63;;;241.00;;
51438;SDS011;38816;51.142;-0.974;2023-08-06T01:40:40;266.77;;;249.63;;
51438;SDS011;38816;51.142;-0.974;2023-08-06T01:43:06;259.15;;;242.45;;
51438;SDS011;38816;51.142;-0.974;2023-08-06T01:45:31;255.88;;;239.38;;
51438;SDS011;38816;51.142;-0.974;2023-08-06T01:47:56;258.55;;;241.93;;
51438;SDS011;38816;51.142;-0.974;2023-08-06T01:50:22;258.40;;;241.75;;
51438;SDS011;38816;51.142;-0.974;2023-08-06T01:52:47;256.13;;;239.52;;
51438;SDS011;38816;51.142;-0.974;2023-08-06T01:55:13;251.32;;;235.05;;
51438;SDS011;38816;51.142;-0.974;2023-08-06T01:57:38;259.25;;;242.38;;
51438;SDS011;38816;51.142;-0.974;2023-08-06T02:00:04;250.57;;;234.10;;
51438;SDS011;38816;51.142;-0.974;2023-08-06T02:02:30;268.40;;;250.68;;
51438;SDS011;38816;51.142;-0.974;2023-08-06T02:04:55;257.23;;;239.88;;
51438;SDS011;38816;51.142;-0.974;2023-08-06T02:07:23;240.57;;;225.00;;
51438;SDS011;38816;51.142;-0.974;2023-08-06T02:09:48;245.70;;;229.68;;
51438;SDS011;38816;51.142;-0.974;2023-08-06T02:12:14;246.05;;;229.63;;
51438;SDS011;38816;51.142;-0.974;2023-08-06T02:14:39;245.90;;;229.75;;
51438;SDS011;38816;51.142;-0.974;2023-08-06T02:17:04;243.05;;;227.07;;
51438;SDS011;38816;51.142;-0.974;2023-08-06T02:19:30;250.77;;;234.13;;
51438;SDS011;38816;51.142;-0.974;2023-08-06T02:21:56;257.15;;;240.55;;
51438;SDS011;38816;51.142;-0.974;2023-08-06T02:24:21;246.95;;;230.85;;
51438;SDS011;38816;51.142;-0.974;2023-08-06T02:26:47;253.63;;;237.07;;
51438;SDS011;38816;51.142;-0.974;2023-08-06T02:29:15;244.10;;;228.00;;
51438;SDS011;38816;51.142;-0.974;2023-08-06T02:31:41;250.10;;;233.90;;
51438;SDS011;38816;51.142;-0.974;2023-08-06T02:34:06;243.40;;;227.27;;
51438;SDS011;38816;51.142;-0.974;2023-08-06T02:36:32;244.93;;;229.07;;
51438;SDS011;38816;51.142;-0.974;2023-08-06T02:39:00;250.93;;;234.55;;
51438;SDS011;38816;51.142;-0.974;2023-08-06T02:41:26;252.23;;;235.73;;
51438;SDS011;38816;51.142;-0.974;2023-08-06T02:43:52;264.88;;;247.80;;
51438;SDS011;38816;51.142;-0.974;2023-08-06T02:46:18;252.75;;;236.32;;
51438;SDS011;38816;51.142;-0.974;2023-08-06T02:48:43;252.57;;;236.25;;
51438;SDS011;38816;51.142;-0.974;2023-08-06T02:51:09;250.18;;;233.95;;
51438;SDS011;38816;51.142;-0.974;2023-08-06T02:53:34;245.23;;;228.93;;
51438;SDS011;38816;51.142;-0.974;2023-08-06T02:55:59;251.57;;;235.30;;
51438;SDS011;38816;51.142;-0.974;2023-08-06T02:58:25;254.95;;;237.95;;
51438;SDS011;38816;51.142;-0.974;2023-08-06T03:01:00;241.20;;;225.18;;
51438;SDS011;38816;51.142;-0.974;2023-08-06T03:03:33;247.10;;;230.68;;
51438;SDS011;38816;51.142;-0.974;2023-08-06T03:05:59;249.50;;;233.02;;
51438;SDS011;38816;51.142;-0.974;2023-08-06T03:08:25;250.10;;;233.95;;
51438;SDS011;38816;51.142;-0.974;2023-08-06T03:10:51;245.35;;;229.23;;
51438;SDS011;38816;51.142;-0.974;2023-08-06T03:13:16;248.02;;;231.88;;
51438;SDS011;38816;51.142;-0.974;2023-08-06T03:15:43;247.68;;;231.75;;
51438;SDS011;38816;51.142;-0.974;2023-08-06T03:18:08;243.10;;;226.85;;
51438;SDS011;38816;51.142;-0.974;2023-08-06T03:20:34;240.80;;;225.30;;
51438;SDS011;38816;51.142;-0.974;2023-08-06T03:22:59;251.77;;;235.43;;
51438;SDS011;38816;51.142;-0.974;2023-08-06T03:25:25;251.50;;;234.88;;
51438;SDS011;38816;51.142;-0.974;2023-08-06T03:27:50;252.45;;;236.18;;
51438;SDS011;38816;51.142;-0.974;2023-08-06T03:30:16;241.88;;;225.68;;
51438;SDS011;38816;51.142;-0.974;2023-08-06T03:32:41;256.63;;;239.85;;
51438;SDS011;38816;51.142;-0.974;2023-08-06T03:35:07;245.52;;;229.43;;
51438;SDS011;38816;51.142;-0.974;2023-08-06T03:37:32;240.15;;;224.38;;
51438;SDS011;38816;51.142;-0.974;2023-08-06T03:39:58;247.10;;;231.18;;
51438;SDS011;38816;51.142;-0.974;2023-08-06T03:42:23;256.77;;;240.10;;
51438;SDS011;38816;51.142;-0.974;2023-08-06T03:44:48;253.68;;;237.05;;
51438;SDS011;38816;51.142;-0.974;2023-08-06T03:47:14;248.05;;;231.60;;
51438;SDS011;38816;51.142;-0.974;2023-08-06T03:49:39;251.98;;;235.60;;
51438;SDS011;38816;51.142;-0.974;2023-08-06T03:52:05;263.98;;;246.68;;
51438;SDS011;38816;51.142;-0.974;2023-08-06T03:54:31;251.10;;;234.70;;
51438;SDS011;38816;51.142;-0.974;2023-08-06T03:56:56;262.73;;;245.38;;
51438;SDS011;38816;51.142;-0.974;2023-08-06T03:59:21;249.45;;;233.27;;
51438;SDS011;38816;51.142;-0.974;2023-08-06T04:01:47;250.93;;;234.50;;
51438;SDS011;38816;51.142;-0.974;2023-08-06T04:04:12;262.10;;;245.18;;
51438;SDS011;38816;51.142;-0.974;2023-08-06T04:06:38;256.08;;;239.07;;
51438;SDS011;38816;51.142;-0.974;2023-08-06T04:09:03;253.38;;;236.57;;
51438;SDS011;38816;51.142;-0.974;2023-08-06T04:11:29;257.83;;;241.13;;
51438;SDS011;38816;51.142;-0.974;2023-08-06T04:13:54;255.02;;;238.70;;
51438;SDS011;38816;51.142;-0.974;2023-08-06T04:16:20;252.95;;;236.43;;
51438;SDS011;38816;51.142;-0.974;2023-08-06T04:18:46;249.23;;;232.85;;
51438;SDS011;38816;51.142;-0.974;2023-08-06T04:21:12;256.58;;;239.93;;
51438;SDS011;38816;51.142;-0.974;2023-08-06T04:23:37;258.90;;;241.88;;
51438;SDS011;38816;51.142;-0.974;2023-08-06T04:26:03;259.92;;;242.95;;
51438;SDS011;38816;51.142;-0.974;2023-08-06T04:28:28;259.10;;;242.20;;
51438;SDS011;38816;51.142;-0.974;2023-08-06T04:30:54;252.57;;;236.18;;
51438;SDS011;38816;51.142;-0.974;2023-08-06T04:33:22;263.40;;;246.25;;
51438;SDS011;38816;51.142;-0.974;2023-08-06T04:35:47;257.40;;;240.38;;
51438;SDS011;38816;51.142;-0.974;2023-08-06T04:38:19;252.07;;;235.80;;
51438;SDS011;38816;51.142;-0.974;2023-08-06T04:40:44;260.98;;;243.85;;
51438;SDS011;38816;51.142;-0.974;2023-08-06T04:43:09;255.27;;;238.68;;
51438;SDS011;38816;51.142;-0.974;2023-08-06T04:45:35;253.85;;;237.45;;
51438;SDS011;38816;51.142;-0.974;2023-08-06T04:48:00;257.65;;;240.65;;
51438;SDS011;38816;51.142;-0.974;2023-08-06T04:50:26;255.00;;;238.25;;
51438;SDS011;38816;51.142;-0.974;2023-08-06T04:52:51;251.63;;;235.32;;
51438;SDS011;38816;51.142;-0.974;2023-08-06T04:55:17;258.90;;;241.98;;
51438;SDS011;38816;51.142;-0.974;2023-08-06T04:57:42;253.90;;;237.30;;
51438;SDS011;38816;51.142;-0.974;2023-08-06T05:00:07;246.73;;;230.70;;
51438;SDS011;38816;51.142;-0.974;2023-08-06T05:02:33;251.13;;;234.82;;
51438;SDS011;38816;51.142;-0.974;2023-08-06T05:04:59;248.32;;;231.77;;
51438;SDS011;38816;51.142;-0.974;2023-08-06T05:07:27;256.20;;;239.63;;
51438;SDS011;38816;51.142;-0.974;2023-08-06T05:09:53;251.93;;;235.45;;
51438;SDS011;38816;51.142;-0.974;2023-08-06T05:12:18;248.95;;;232.60;;
51438;SDS011;38816;51.142;-0.974;2023-08-06T05:14:44;252.50;;;235.88;;
51438;SDS011;38816;51.142;-0.974;2023-08-06T05:17:09;249.45;;;233.23;;
51438;SDS011;38816;51.142;-0.974;2023-08-06T05:19:35;239.18;;;223.48;;
51438;SDS011;38816;51.142;-0.974;2023-08-06T05:22:00;245.13;;;229.23;;
51438;SDS011;38816;51.142;-0.974;2023-08-06T05:24:27;239.85;;;223.88;;
51438;SDS011;38816;51.142;-0.974;2023-08-06T05:26:53;241.88;;;226.15;;
51438;SDS011;38816;51.142;-0.974;2023-08-06T05:29:18;238.05;;;222.45;;
51438;SDS011;38816;51.142;-0.974;2023-08-06T05:31:44;233.90;;;218.48;;
51438;SDS011;38816;51.142;-0.974;2023-08-06T05:34:09;241.45;;;225.60;;
51438;SDS011;38816;51.142;-0.974;2023-08-06T05:36:34;238.93;;;223.38;;
51438;SDS011;38816;51.142;-0.974;2023-08-06T05:39:00;234.52;;;219.27;;
51438;SDS011;38816;51.142;-0.974;2023-08-06T05:41:25;229.18;;;214.32;;
51438;SDS011;38816;51.142;-0.974;2023-08-06T05:43:51;237.55;;;222.10;;
51438;SDS011;38816;51.142;-0.974;2023-08-06T05:46:16;231.85;;;216.82;;
51438;SDS011;38816;51.142;-0.974;2023-08-06T05:48:42;234.30;;;219.05;;
51438;SDS011;38816;51.142;-0.974;2023-08-06T05:51:10;241.68;;;225.98;;
51438;SDS011;38816;51.142;-0.974;2023-08-06T05:53:38;243.57;;;227.57;;
51438;SDS011;38816;51.142;-0.974;2023-08-06T05:56:04;238.90;;;223.13;;
51438;SDS011;38816;51.142;-0.974;2023-08-06T05:58:29;243.20;;;227.50;;
51438;SDS011;38816;51.142;-0.974;2023-08-06T06:00:55;233.80;;;218.43;;
51438;SDS011;38816;51.142;-0.974;2023-08-06T06:03:21;245.27;;;229.30;;
51438;SDS011;38816;51.142;-0.974;2023-08-06T06:05:46;247.63;;;231.65;;
51438;SDS011;38816;51.142;-0.974;2023-08-06T06:08:12;240.57;;;224.95;;
51438;SDS011;38816;51.142;-0.974;2023-08-06T06:10:37;245.30;;;229.25;;
51438;SDS011;38816;51.142;-0.974;2023-08-06T06:13:03;245.45;;;229.65;;
51438;SDS011;38816;51.142;-0.974;2023-08-06T06:15:28;253.95;;;237.30;;
51438;SDS011;38816;51.142;-0.974;2023-08-06T06:17:54;248.35;;;231.77;;
51438;SDS011;38816;51.142;-0.974;2023-08-06T06:20:19;250.13;;;233.45;;
51438;SDS011;38816;51.142;-0.974;2023-08-06T06:22:45;262.27;;;245.25;;
51438;SDS011;38816;51.142;-0.974;2023-08-06T06:25:10;254.57;;;238.13;;
51438;SDS011;38816;51.142;-0.974;2023-08-06T06:27:38;253.82;;;237.15;;
51438;SDS011;38816;51.142;-0.974;2023-08-06T06:30:04;251.38;;;235.07;;
51438;SDS011;38816;51.142;-0.974;2023-08-06T06:32:30;264.15;;;247.15;;
51438;SDS011;38816;51.142;-0.974;2023-08-06T06:34:55;252.32;;;235.77;;
51438;SDS011;38816;51.142;-0.974;2023-08-06T06:37:21;256.30;;;239.65;;
51438;SDS011;38816;51.142;-0.974;2023-08-06T06:39:46;266.17;;;248.40;;
51438;SDS011;38816;51.142;-0.974;2023-08-06T06:42:11;268.38;;;250.90;;
51438;SDS011;38816;51.142;-0.974;2023-08-06T06:44:41;260.83;;;243.82;;
51438;SDS011;38816;51.142;-0.974;2023-08-06T06:47:07;268.27;;;250.73;;
51438;SDS011;38816;51.142;-0.974;2023-08-06T06:49:32;271.88;;;254.27;;
51438;SDS011;38816;51.142;-0.974;2023-08-06T06:51:57;275.58;;;257.67;;
51438;SDS011;38816;51.142;-0.974;2023-08-06T06:54:23;288.27;;;269.55;;
51438;SDS011;38816;51.142;-0.974;2023-08-06T06:56:49;303.80;;;283.63;;
51438;SDS011;38816;51.142;-0.974;2023-08-06T06:59:14;299.83;;;280.30;;
51438;SDS011;38816;51.142;-0.974;2023-08-06T07:01:39;302.45;;;282.90;;
51438;SDS011;38816;51.142;-0.974;2023-08-06T07:04:05;310.38;;;290.20;;
51438;SDS011;38816;51.142;-0.974;2023-08-06T07:06:31;312.92;;;292.17;;
51438;SDS011;38816;51.142;-0.974;2023-08-06T07:08:56;313.90;;;292.75;;
51438;SDS011;38816;51.142;-0.974;2023-08-06T07:11:22;315.83;;;294.92;;
51438;SDS011;38816;51.142;-0.974;2023-08-06T07:13:49;337.48;;;315.08;;
51438;SDS011;38816;51.142;-0.974;2023-08-06T07:18:46;329.45;;;307.30;;
51438;SDS011;38816;51.142;-0.974;2023-08-06T07:21:11;349.05;;;326.10;;
51438;SDS011;38816;51.142;-0.974;2023-08-06T07:23:37;339.08;;;316.40;;
51438;SDS011;38816;51.142;-0.974;2023-08-06T07:26:02;356.35;;;332.52;;
51438;SDS011;38816;51.142;-0.974;2023-08-06T07:28:28;363.27;;;339.10;;
51438;SDS011;38816;51.142;-0.974;2023-08-06T07:30:53;364.85;;;340.38;;
51438;SDS011;38816;51.142;-0.974;2023-08-06T07:33:19;374.73;;;349.67;;
51438;SDS011;38816;51.142;-0.974;2023-08-06T07:35:44;377.20;;;352.05;;
51438;SDS011;38816;51.142;-0.974;2023-08-06T07:38:10;375.58;;;350.60;;
51438;SDS011;38816;51.142;-0.974;2023-08-06T07:40:36;383.38;;;357.77;;
51438;SDS011;38816;51.142;-0.974;2023-08-06T07:43:04;374.08;;;348.98;;
51438;SDS011;38816;51.142;-0.974;2023-08-06T07:45:35;386.85;;;360.80;;
51438;SDS011;38816;51.142;-0.974;2023-08-06T07:48:01;384.77;;;358.73;;
51438;SDS011;38816;51.142;-0.974;2023-08-06T07:50:29;389.60;;;363.17;;
51438;SDS011;38816;51.142;-0.974;2023-08-06T07:52:55;402.23;;;374.88;;
51438;SDS011;38816;51.142;-0.974;2023-08-06T07:55:20;413.50;;;385.55;;
51438;SDS011;38816;51.142;-0.974;2023-08-06T07:57:46;417.83;;;389.27;;
51438;SDS011;38816;51.142;-0.974;2023-08-06T08:00:11;421.35;;;392.80;;
51438;SDS011;38816;51.142;-0.974;2023-08-06T08:02:37;407.67;;;380.17;;
51438;SDS011;38816;51.142;-0.974;2023-08-06T08:05:02;408.17;;;380.67;;
51438;SDS011;38816;51.142;-0.974;2023-08-06T08:07:28;427.65;;;398.42;;
51438;SDS011;38816;51.142;-0.974;2023-08-06T08:09:55;438.75;;;409.30;;
51438;SDS011;38816;51.142;-0.974;2023-08-06T08:12:21;425.35;;;396.55;;
51438;SDS011;38816;51.142;-0.974;2023-08-06T08:14:47;424.75;;;396.15;;
51438;SDS011;38816;51.142;-0.974;2023-08-06T08:17:12;447.60;;;417.27;;
51438;SDS011;38816;51.142;-0.974;2023-08-06T08:19:37;440.55;;;410.80;;
51438;SDS011;38816;51.142;-0.974;2023-08-06T08:22:03;444.05;;;413.92;;
51438;SDS011;38816;51.142;-0.974;2023-08-06T08:24:28;447.85;;;417.05;;
51438;SDS011;38816;51.142;-0.974;2023-08-06T08:26:55;460.00;;;428.77;;
51438;SDS011;38816;51.142;-0.974;2023-08-06T08:29:21;463.50;;;432.08;;
51438;SDS011;38816;51.142;-0.974;2023-08-06T08:31:47;482.17;;;449.40;;
51438;SDS011;38816;51.142;-0.974;2023-08-06T08:34:15;471.83;;;439.70;;
51438;SDS011;38816;51.142;-0.974;2023-08-06T08:36:41;488.73;;;455.45;;
51438;SDS011;38816;51.142;-0.974;2023-08-06T08:39:07;479.73;;;446.75;;
51438;SDS011;38816;51.142;-0.974;2023-08-06T08:41:32;478.40;;;445.40;;
51438;SDS011;38816;51.142;-0.974;2023-08-06T08:43:59;485.48;;;452.23;;
51438;SDS011;38816;51.142;-0.974;2023-08-06T08:46:29;495.80;;;461.95;;
51438;SDS011;38816;51.142;-0.974;2023-08-06T08:48:56;486.58;;;452.90;;
51438;SDS011;38816;51.142;-0.974;2023-08-06T08:51:24;491.52;;;457.88;;
51438;SDS011;38816;51.142;-0.974;2023-08-06T08:53:52;474.20;;;441.27;;
51438;SDS011;38816;51.142;-0.974;2023-08-06T08:56:20;494.00;;;460.40;;
51438;SDS011;38816;51.142;-0.974;2023-08-06T08:58:46;495.98;;;462.30;;
51438;SDS011;38816;51.142;-0.974;2023-08-06T09:01:11;481.98;;;449.05;;
51438;SDS011;38816;51.142;-0.974;2023-08-06T09:03:37;497.10;;;463.35;;
51438;SDS011;38816;51.142;-0.974;2023-08-06T09:06:04;492.58;;;458.75;;
51438;SDS011;38816;51.142;-0.974;2023-08-06T09:08:33;484.45;;;451.23;;
51438;SDS011;38816;51.142;-0.974;2023-08-06T09:11:02;491.80;;;458.25;;
51438;SDS011;38816;51.142;-0.974;2023-08-06T09:13:30;484.70;;;451.60;;
51438;SDS011;38816;51.142;-0.974;2023-08-06T09:15:56;494.02;;;460.42;;
51438;SDS011;38816;51.142;-0.974;2023-08-06T09:18:25;482.55;;;449.63;;
51438;SDS011;38816;51.142;-0.974;2023-08-06T09:20:54;467.60;;;435.83;;
51438;SDS011;38816;51.142;-0.974;2023-08-06T09:23:19;465.63;;;433.90;;
51438;SDS011;38816;51.142;-0.974;2023-08-06T09:25:45;461.27;;;429.83;;
51438;SDS011;38816;51.142;-0.974;2023-08-06T09:28:11;452.23;;;421.15;;
51438;SDS011;38816;51.142;-0.974;2023-08-06T09:30:37;463.23;;;431.67;;
51438;SDS011;38816;51.142;-0.974;2023-08-06T09:33:02;459.23;;;427.88;;
51438;SDS011;38816;51.142;-0.974;2023-08-06T09:35:29;472.48;;;440.35;;
51438;SDS011;38816;51.142;-0.974;2023-08-06T09:37:55;467.40;;;435.52;;
51438;SDS011;38816;51.142;-0.974;2023-08-06T09:40:32;481.60;;;448.80;;
51438;SDS011;38816;51.142;-0.974;2023-08-06T09:42:58;470.80;;;438.65;;
51438;SDS011;38816;51.142;-0.974;2023-08-06T09:45:31;459.67;;;428.45;;
51438;SDS011;38816;51.142;-0.974;2023-08-06T09:47:58;455.33;;;424.40;;
51438;SDS011;38816;51.142;-0.974;2023-08-06T09:50:29;451.65;;;420.75;;
51438;SDS011;38816;51.142;-0.974;2023-08-06T09:52:59;449.63;;;419.15;;
51438;SDS011;38816;51.142;-0.974;2023-08-06T09:55:26;451.05;;;420.38;;
51438;SDS011;38816;51.142;-0.974;2023-08-06T09:57:52;456.13;;;425.02;;
51438;SDS011;38816;51.142;-0.974;2023-08-06T10:00:18;456.85;;;425.88;;
51438;SDS011;38816;51.142;-0.974;2023-08-06T10:02:43;459.48;;;428.42;;
51438;SDS011;38816;51.142;-0.974;2023-08-06T10:05:10;456.88;;;426.15;;
51438;SDS011;38816;51.142;-0.974;2023-08-06T10:07:36;451.38;;;420.95;;
51438;SDS011;38816;51.142;-0.974;2023-08-06T10:10:04;468.38;;;436.63;;
51438;SDS011;38816;51.142;-0.974;2023-08-06T10:12:32;453.00;;;422.33;;
51438;SDS011;38816;51.142;-0.974;2023-08-06T10:15:01;464.92;;;433.50;;
51438;SDS011;38816;51.142;-0.974;2023-08-06T10:17:31;464.95;;;433.58;;
51438;SDS011;38816;51.142;-0.974;2023-08-06T10:19:59;470.95;;;438.83;;
51438;SDS011;38816;51.142;-0.974;2023-08-06T10:22:29;458.10;;;427.05;;
51438;SDS011;38816;51.142;-0.974;2023-08-06T10:24:58;442.40;;;412.42;;
51438;SDS011;38816;51.142;-0.974;2023-08-06T10:27:34;455.40;;;424.67;;
51438;SDS011;38816;51.142;-0.974;2023-08-06T10:30:23;464.27;;;432.90;;
51438;SDS011;38816;51.142;-0.974;2023-08-06T10:32:50;453.48;;;422.67;;
51438;SDS011;38816;51.142;-0.974;2023-08-06T10:35:29;463.98;;;432.58;;
51438;SDS011;38816;51.142;-0.974;2023-08-06T10:38:14;455.08;;;424.17;;
51438;SDS011;38816;51.142;-0.974;2023-08-06T10:40:52;467.80;;;436.00;;
51438;SDS011;38816;51.142;-0.974;2023-08-06T10:43:34;465.15;;;433.70;;
51438;SDS011;38816;51.142;-0.974;2023-08-06T10:46:01;462.23;;;430.95;;
51438;SDS011;38816;51.142;-0.974;2023-08-06T10:48:35;456.15;;;425.27;;
51438;SDS011;38816;51.142;-0.974;2023-08-06T10:51:03;465.38;;;433.85;;
51438;SDS011;38816;51.142;-0.974;2023-08-06T10:53:33;461.45;;;430.10;;
51438;SDS011;38816;51.142;-0.974;2023-08-06T10:55:58;468.48;;;436.52;;
51438;SDS011;38816;51.142;-0.974;2023-08-06T10:58:23;452.27;;;421.48;;
51438;SDS011;38816;51.142;-0.974;2023-08-06T11:00:49;462.33;;;430.85;;
51438;SDS011;38816;51.142;-0.974;2023-08-06T11:03:14;464.08;;;432.45;;
51438;SDS011;38816;51.142;-0.974;2023-08-06T11:05:40;458.75;;;427.73;;
51438;SDS011;38816;51.142;-0.974;2023-08-06T11:08:05;471.55;;;439.65;;
51438;SDS011;38816;51.142;-0.974;2023-08-06T11:10:34;468.83;;;437.10;;
51438;SDS011;38816;51.142;-0.974;2023-08-06T11:13:03;457.30;;;426.25;;
51438;SDS011;38816;51.142;-0.974;2023-08-06T11:15:29;470.33;;;438.58;;
51438;SDS011;38816;51.142;-0.974;2023-08-06T11:17:56;465.35;;;433.92;;
51438;SDS011;38816;51.142;-0.974;2023-08-06T11:20:22;463.55;;;432.13;;
51438;SDS011;38816;51.142;-0.974;2023-08-06T11:22:49;465.98;;;434.55;;
51438;SDS011;38816;51.142;-0.974;2023-08-06T11:25:15;459.92;;;428.80;;
51438;SDS011;38816;51.142;-0.974;2023-08-06T11:27:40;474.05;;;441.95;;
51438;SDS011;38816;51.142;-0.974;2023-08-06T11:30:06;476.10;;;443.75;;
51438;SDS011;38816;51.142;-0.974;2023-08-06T11:32:32;461.17;;;430.00;;
51438;SDS011;38816;51.142;-0.974;2023-08-06T11:35:08;457.52;;;426.50;;
51438;SDS011;38816;51.142;-0.974;2023-08-06T11:37:34;480.98;;;448.50;;
51438;SDS011;38816;51.142;-0.974;2023-08-06T11:40:02;477.65;;;445.38;;
51438;SDS011;38816;51.142;-0.974;2023-08-06T11:42:33;478.00;;;445.75;;
51438;SDS011;38816;51.142;-0.974;2023-08-06T11:45:01;467.65;;;436.13;;
51438;SDS011;38816;51.142;-0.974;2023-08-06T11:47:29;471.33;;;439.30;;
51438;SDS011;38816;51.142;-0.974;2023-08-06T11:49:54;466.65;;;435.00;;
51438;SDS011;38816;51.142;-0.974;2023-08-06T11:52:21;455.52;;;424.88;;
51438;SDS011;38816;51.142;-0.974;2023-08-06T11:54:59;470.20;;;438.42;;
51438;SDS011;38816;51.142;-0.974;2023-08-06T11:57:25;481.67;;;449.10;;
51438;SDS011;38816;51.142;-0.974;2023-08-06T11:59:50;470.05;;;438.08;;
51438;SDS011;38816;51.142;-0.974;2023-08-06T12:02:16;473.42;;;441.35;;
51438;SDS011;38816;51.142;-0.974;2023-08-06T12:05:04;480.88;;;448.15;;
51438;SDS011;38816;51.142;-0.974;2023-08-06T12:07:44;469.30;;;437.02;;
51438;SDS011;38816;51.142;-0.974;2023-08-06T12:10:11;472.70;;;440.60;;
51438;SDS011;38816;51.142;-0.974;2023-08-06T12:12:38;471.20;;;439.15;;
51438;SDS011;38816;51.142;-0.974;2023-08-06T12:15:04;480.33;;;447.65;;
51438;SDS011;38816;51.142;-0.974;2023-08-06T12:17:36;473.80;;;441.73;;
51438;SDS011;38816;51.142;-0.974;2023-08-06T12:20:03;473.30;;;441.27;;
51438;SDS011;38816;51.142;-0.974;2023-08-06T12:22:30;479.15;;;446.70;;
51438;SDS011;38816;51.142;-0.974;2023-08-06T12:25:00;480.38;;;447.75;;
51438;SDS011;38816;51.142;-0.974;2023-08-06T12:27:33;484.70;;;451.58;;
51438;SDS011;38816;51.142;-0.974;2023-08-06T12:30:01;488.17;;;455.15;;
51438;SDS011;38816;51.142;-0.974;2023-08-06T12:32:28;490.55;;;456.98;;
51438;SDS011;38816;51.142;-0.974;2023-08-06T12:34:53;481.05;;;448.23;;
51438;SDS011;38816;51.142;-0.974;2023-08-06T12:37:19;486.95;;;453.67;;
51438;SDS011;38816;51.142;-0.974;2023-08-06T12:39:44;481.80;;;449.05;;
51438;SDS011;38816;51.142;-0.974;2023-08-06T12:42:10;485.13;;;452.25;;
51438;SDS011;38816;51.142;-0.974;2023-08-06T12:44:36;482.02;;;449.38;;
51438;SDS011;38816;51.142;-0.974;2023-08-06T12:47:01;473.42;;;441.50;;
51438;SDS011;38816;51.142;-0.974;2023-08-06T12:49:27;431.80;;;402.83;;
51438;SDS011;38816;51.142;-0.974;2023-08-06T12:51:53;432.20;;;402.88;;
51438;SDS011;38816;51.142;-0.974;2023-08-06T12:54:20;426.98;;;398.15;;
51438;SDS011;38816;51.142;-0.974;2023-08-06T12:56:46;440.42;;;410.80;;
51438;SDS011;38816;51.142;-0.974;2023-08-06T12:59:16;436.08;;;406.83;;
51438;SDS011;38816;51.142;-0.974;2023-08-06T13:01:42;447.05;;;417.17;;
51438;SDS011;38816;51.142;-0.974;2023-08-06T13:04:08;445.17;;;415.45;;
51438;SDS011;38816;51.142;-0.974;2023-08-06T13:06:34;465.80;;;434.20;;
51438;SDS011;38816;51.142;-0.974;2023-08-06T13:09:05;438.70;;;409.15;;
51438;SDS011;38816;51.142;-0.974;2023-08-06T13:11:32;450.35;;;420.02;;
51438;SDS011;38816;51.142;-0.974;2023-08-06T13:14:11;443.92;;;414.13;;
51438;SDS011;38816;51.142;-0.974;2023-08-06T13:16:39;466.90;;;435.38;;
51438;SDS011;38816;51.142;-0.974;2023-08-06T13:19:07;459.95;;;428.50;;
51438;SDS011;38816;51.142;-0.974;2023-08-06T13:21:33;474.00;;;441.67;;
51438;SDS011;38816;51.142;-0.974;2023-08-06T13:24:05;457.02;;;426.13;;
51438;SDS011;38816;51.142;-0.974;2023-08-06T13:26:30;443.77;;;413.77;;
51438;SDS011;38816;51.142;-0.974;2023-08-06T13:28:56;447.05;;;416.92;;
51438;SDS011;38816;51.142;-0.974;2023-08-06T13:31:23;442.77;;;412.98;;
51438;SDS011;38816;51.142;-0.974;2023-08-06T13:33:48;451.70;;;421.10;;
51438;SDS011;38816;51.142;-0.974;2023-08-06T13:36:17;452.88;;;422.17;;
51438;SDS011;38816;51.142;-0.974;2023-08-06T13:38:42;451.27;;;420.73;;
51438;SDS011;38816;51.142;-0.974;2023-08-06T13:41:08;446.08;;;415.92;;
51438;SDS011;38816;51.142;-0.974;2023-08-06T13:43:34;451.85;;;421.35;;
51438;SDS011;38816;51.142;-0.974;2023-08-06T13:45:59;449.85;;;419.42;;
51438;SDS011;38816;51.142;-0.974;2023-08-06T13:48:25;460.83;;;429.65;;
51438;SDS011;38816;51.142;-0.974;2023-08-06T13:50:50;457.45;;;426.42;;
51438;SDS011;38816;51.142;-0.974;2023-08-06T13:53:16;443.75;;;413.92;;